x

Upper Potomac, Md (44061) Weather Station

2:50am - Fri 19th Sep 2014 All times are EDT. -4 hours from GMT.

  • Wind
    4mph, 7mph gusts
  • Air Temp 65°f
  • Sea Pressure 1019.9mb
  • Upper Potomac, Md
  • Upper Potomac, Md

More Historic Weather Station data

Upgrade to MSW Pro to gain access to the past 30 days of data for over 8000 Wavebouys and Weather Stations around the globe.

Join Pro

Comparision Forecast

View Surf forecast
   
Fri 09/19 2:50am 4 7 mph 1019.9mb - 65f
2:40am 2 4 mph 1019.8mb - 65f
2:30am 4
mph
1019.7mb - 66f
2:20am 2
mph
1019.7mb - 66f
2:10am 2 4 mph 1019.6mb - 66f
2:00am 4
mph
1019.6mb 73f 65f
1:50am 4
mph
1019.5mb - 65f
1:40am 4 7 mph 1019.4mb - 65f
1:30am 4 7 mph 1019.4mb - 65f
1:20am 7
mph
1019.3mb - 65f
1:10am 7
mph
1019.2mb - 66f
1:00am 7
mph
1019.2mb 73f 66f
12:50am 7
mph
1019.4mb - 66f
12:40am 7 9 mph 1019.3mb - 66f
12:30am 7 9 mph 1019.2mb - 67f
12:20am 7
mph
1019.3mb - 67f
12:10am 4 7 mph 1019.3mb - 67f
12:00am 2 4 mph 1019.3mb 73f 67f
Thu 09/18 11:50pm  -  2 mph 1019.2mb - 67f
11:40pm 2 4 mph 1019.1mb - 67f
11:30pm 2 4 mph 1019mb - 67f
11:20pm 4
mph
1018.9mb - 68f
11:10pm 4
mph
1018.9mb - 68f
11:00pm 4
mph
1018.8mb 73f 68f
10:50pm 4
mph
1018.7mb - 68f
10:40pm 2 4 mph 1018.6mb - 68f
10:30pm  -  2 mph 1018.5mb - 68f
10:20pm 2
mph
1018.4mb - 68f
10:10pm 2 4 mph 1018.2mb - 68f
10:00pm 2 4 mph 1018.1mb 74f 68f
9:50pm 2 4 mph 1018mb - 69f
9:40pm 2 7 mph 1018mb - 69f
9:30pm 2 4 mph 1017.9mb - 69f
9:20pm 2 4 mph 1017.9mb - 69f
9:10pm 2 4 mph 1017.8mb - 69f
9:00pm 4
mph
1017.6mb 74f 69f
8:50pm 4 7 mph 1017.5mb - 70f
8:40pm 4
mph
1017.4mb - 70f
8:30pm 4
mph
1017.2mb - 70f
8:20pm 2 4 mph 1017.1mb - 71f
8:10pm 4 7 mph 1017mb - 71f
8:00pm 4 7 mph 1016.8mb 74f 72f
7:50pm 4 7 mph 1016.6mb - 72f
7:40pm 7 9 mph 1016.3mb - 72f
7:30pm 7 9 mph 1016.2mb - 73f
7:20pm 7
mph
1016.1mb - 73f
7:10pm 7 11 mph 1016mb - 73f
7:00pm 9 13 mph 1015.9mb 74f 73f
6:50pm 9 13 mph 1015.8mb - 73f
6:40pm 11 13 mph 1015.7mb - 74f
6:30pm 11 13 mph 1015.7mb - 74f
6:20pm 13 18 mph 1015.6mb - 74f
6:10pm 11 20 mph 1015.4mb - 76f
6:00pm 7 11 mph 1015.3mb 74f 77f
5:50pm 7 9 mph 1015.2mb - 77f
5:40pm 7 11 mph 1015.1mb - 77f
5:30pm 7 11 mph 1015.1mb - 77f
5:20pm 7 9 mph 1015.1mb - 77f
5:10pm 4 11 mph 1015mb - 76f
5:00pm 7 9 mph 1015.1mb 75f 76f
4:50pm 7 13 mph 1015.1mb - 76f
4:40pm 7 9 mph 1015.1mb - 76f
4:30pm 4 7 mph 1015.1mb - 76f
4:20pm 2 4 mph 1015.1mb - 76f
4:10pm 2 4 mph 1015.2mb - 75f
4:00pm 4 7 mph 1015.2mb 74f 75f
3:50pm 4 7 mph 1015.2mb - 75f
3:40pm 2 4 mph 1015.2mb - 74f
3:30pm 4
mph
1015.2mb - 74f
3:20pm 2
mph
1015.2mb - 74f
3:10pm 2 4 mph 1015.2mb - 74f
3:00pm 4 7 mph 1015.2mb 74f 74f
2:50pm 4 7 mph 1015.2mb - 74f
2:40pm 7 9 mph 1015.3mb - 73f
2:30pm 7 11 mph 1015.3mb - 74f
2:20pm 4 7 mph 1015.4mb - 73f
2:10pm 4 9 mph 1015.5mb - 73f
2:00pm 7 13 mph 1015.5mb 74f 73f
1:50pm 11
mph
1015.4mb - 72f
1:40pm 9 11 mph 1015.5mb - 72f
1:30pm 9 11 mph 1015.6mb - 72f
1:20pm 9 11 mph 1015.7mb - 72f
1:10pm 7 11 mph 1015.8mb - 72f
1:00pm 9 13 mph 1015.8mb 74f 71f
12:50pm 9 11 mph 1015.8mb - 71f
12:40pm 7 9 mph 1015.8mb - 71f
12:30pm 7 9 mph 1015.8mb - 71f
12:20pm 9 11 mph 1015.9mb - 71f
12:10pm 7 9 mph 1016mb - 71f
12:00pm 4 9 mph 1016mb 74f 70f
11:50am 9 13 mph 1016.1mb - 70f
11:40am 7 11 mph 1016.2mb - 70f
11:30am 7 13 mph 1016.2mb - 70f
11:20am 4 7 mph 1016.2mb - 69f
11:10am 4 7 mph 1016.2mb - 69f
11:00am 4 7 mph 1016.2mb 74f 68f
10:50am 2 4 mph 1016.2mb - 68f
10:40am 4
mph
1016.3mb - 68f
10:30am 4 7 mph 1016.3mb - 67f
10:20am 4 7 mph 1016.2mb - 67f
10:10am 4 7 mph 1016.2mb - 67f
10:00am 4 7 mph 1016.2mb 73f 66f
9:50am 2 4 mph 1016.2mb - 66f
9:40am 2 4 mph 1016.1mb - 66f
9:30am 2
mph
1016mb - 66f
9:20am  -  2 mph 1015.9mb - 66f
9:10am 2
mph
1015.7mb - 65f
9:00am 2
mph
1015.7mb 73f 65f
8:50am 2 4 mph 1015.6mb - 65f
8:40am 2 4 mph 1015.6mb - 65f
8:30am 2 4 mph 1015.6mb - 65f
8:20am 2 4 mph 1015.6mb - 65f
8:10am 2 4 mph 1015.6mb - 64f
8:00am 2 4 mph 1015.6mb 73f 64f
7:50am 2 4 mph 1015.6mb - 64f
7:40am 2 4 mph 1015.5mb - 64f
7:30am 2 4 mph 1015.4mb - 64f
7:20am 2 4 mph 1015.3mb - 64f
7:10am 2 4 mph 1015.2mb - 64f
7:00am 4
mph
1015.1mb 73f 64f
6:50am 2 4 mph 1015.1mb - 64f
6:40am 2 4 mph 1015.1mb - 64f
6:30am 2 4 mph 1015.1mb - 64f
6:20am 4
mph
1015.1mb - 64f
6:10am 4
mph
1014.9mb - 64f
6:00am 2 4 mph 1014.8mb 73f 64f
5:50am 2 4 mph 1014.8mb - 64f
5:40am 4
mph
1014.7mb - 64f
5:30am 2 4 mph 1014.6mb - 65f
5:20am 2 4 mph 1014.6mb - 65f
5:10am 2
mph
1014.6mb - 64f
5:00am 2 4 mph 1014.6mb 74f 64f
4:50am 2 4 mph 1014.6mb - 65f
4:40am 2 4 mph 1014.5mb - 65f
4:30am 2 4 mph 1014.5mb - 65f
4:20am 2 4 mph 1014.5mb - 65f
4:10am 2
mph
1014.4mb - 65f
4:00am 2 4 mph 1014.4mb 74f 65f
3:50am 2 4 mph 1014.4mb - 65f
3:40am 4
mph
1014.4mb - 65f
3:30am 2 4 mph 1014.4mb - 64f
3:20am 4
mph
1014.4mb - 64f
3:10am 2 4 mph 1014.4mb - 64f
3:00am 4 7 mph 1014.4mb 74f 64f
2:50am 4
mph
1014.4mb - 65f
2:40am 2 4 mph 1014.4mb - 65f
2:30am 2 4 mph 1014.4mb - 65f
2:20am  -  2 mph 1014.4mb - 65f
2:10am  -  2 mph 1014.4mb - 65f
2:00am 2
mph
1014.5mb 74f 65f
1:50am 2 4 mph 1014.5mb - 65f
1:40am 2 4 mph 1014.5mb - 65f
1:30am 4
mph
1014.5mb - 65f
1:20am 2 4 mph 1014.4mb - 65f
1:10am 2
mph
1014.5mb - 65f
1:00am 2 4 mph 1014.5mb 74f 65f
12:50am 2 4 mph 1014.5mb - 66f
12:40am 2 4 mph 1014.5mb - 66f
12:30am 2 4 mph 1014.5mb - 66f
12:20am  -  2 mph 1014.6mb - 66f
12:10am  -  2 mph 1014.7mb - 66f
12:00am 2
mph
1014.8mb 74f 66f
Wed 09/17 11:50pm 2 4 mph 1014.9mb - 66f
11:40pm 2 4 mph 1014.9mb - 66f
11:30pm 4
mph
1014.9mb - 66f
11:20pm 4
mph
1015mb - 66f
11:10pm 2 4 mph 1015mb - 67f
11:00pm 2
mph
1014.9mb 74f 67f
10:50pm 2 4 mph 1014.9mb - 67f
10:40pm 2 4 mph 1015mb - 67f
10:30pm 2 4 mph 1015mb - 67f
10:20pm 2 4 mph 1015mb - 67f
10:10pm 2 4 mph 1014.9mb - 67f
10:00pm 4 7 mph 1014.9mb 74f 67f
9:50pm 4 7 mph 1014.8mb - 68f
9:40pm 7 9 mph 1014.6mb - 68f
9:30pm 9
mph
1014.6mb - 68f
9:20pm 9 11 mph 1014.5mb - 68f
9:10pm 9 11 mph 1014.5mb - 68f
9:00pm 9 11 mph 1014.5mb 74f 68f
8:50pm 9 11 mph 1014.5mb - 69f
8:40pm 9 11 mph 1014.5mb - 69f
8:30pm 9 11 mph 1014.4mb - 69f
8:20pm 9 11 mph 1014.4mb - 69f
8:10pm 9 11 mph 1014.3mb - 69f
8:00pm 9 11 mph 1014.3mb 74f 70f
7:50pm 9 11 mph 1014.2mb - 71f
7:40pm 9 11 mph 1014.3mb - 71f
7:30pm 7 9 mph 1014.3mb - 71f
7:20pm 7
mph
1014.3mb - 71f
7:10pm 7
mph
1014.3mb - 72f
7:00pm 7 9 mph 1014.3mb 74f 73f
6:50pm 4 7 mph 1014.2mb - 74f
6:40pm 2
mph
1014.2mb - 75f
6:30pm 2 7 mph 1014.3mb - 75f
6:20pm 4 7 mph 1014.3mb - 74f
6:10pm 2 4 mph 1014.3mb - 74f
6:00pm 2 4 mph 1014.3mb 74f 74f
5:50pm 2
mph
1014.3mb - 74f
5:40pm 2 4 mph 1014.3mb - 75f
5:30pm 2 4 mph 1014.3mb - 75f
5:20pm 2 4 mph 1014.3mb - 75f
5:10pm 2 4 mph 1014.4mb - 74f
5:00pm 2 4 mph 1014.4mb 75f 74f
4:50pm 2 4 mph 1014.3mb - 74f
4:40pm 2 4 mph 1014.3mb - 75f
4:30pm  -  2 mph 1014.3mb - 74f
4:20pm 2 4 mph 1014.4mb - 74f
4:10pm 2 4 mph 1014.4mb - 75f
4:00pm 2
mph
1014.4mb 75f 74f
3:50pm 2
mph
1014.3mb - 74f
3:40pm 2 4 mph 1014.3mb - 74f
3:30pm 2
mph
1014.4mb - 74f
3:20pm 2
mph
1014.4mb - 74f
3:10pm 2 4 mph 1014.6mb - 74f
3:00pm 2 4 mph 1014.6mb 75f 74f
2:50pm 2 4 mph 1014.7mb - 73f
2:40pm  -  4 mph 1014.8mb - 73f
2:30pm 2 4 mph 1015mb - 73f
2:20pm 2 4 mph 1015.1mb - 73f
2:10pm 2 4 mph 1015.3mb - 73f
2:00pm 2 4 mph 1015.4mb 75f 73f
1:40pm 2 4 mph 1015.8mb - 72f
1:20pm 2 4 mph 1016.1mb - 72f
1:10pm 2 4 mph 1016.3mb - 72f
1:00pm 2
mph
1016.5mb 74f 71f
12:50pm 2 4 mph 1016.5mb - 71f
12:40pm 2 4 mph 1016.7mb - 71f
12:30pm 2
mph
1016.8mb - 72f
12:20pm  -  4 mph 1016.9mb - 72f
12:10pm 2
mph
1016.9mb - 71f
12:00pm 2
mph
1017mb 74f 71f
11:50am  -  4 mph 1017.1mb - 71f
11:40am 2 4 mph 1017.3mb - 71f
11:30am 2
mph
1017.3mb - 71f
11:20am  -  2 mph 1017.4mb - 70f
11:10am 2 4 mph 1017.5mb - 69f
11:00am 4 7 mph 1017.6mb 74f 69f
10:50am 2 7 mph 1017.7mb - 69f
10:40am 4 7 mph 1017.7mb - 68f
10:30am 4 7 mph 1017.7mb - 68f
10:20am 7 9 mph 1017.8mb - 68f
10:10am 4 7 mph 1017.8mb - 67f
10:00am 4 7 mph 1017.9mb 74f 66f
9:50am 4 7 mph 1017.9mb - 66f
9:40am 4 7 mph 1017.9mb - 66f
9:30am 4 7 mph 1017.9mb - 65f
9:20am 4 7 mph 1017.9mb - 65f
9:10am 4 7 mph 1017.9mb - 64f
9:00am 4 7 mph 1017.8mb 73f 64f
8:50am 4 9 mph 1017.8mb - 64f
8:40am 4 9 mph 1017.7mb - 63f
8:30am 4
mph
1017.9mb - 63f
8:20am 2 4 mph 1017.8mb - 63f
8:10am 2 4 mph 1017.8mb - 63f
8:00am 2 4 mph 1017.8mb 73f 63f
7:50am 2 4 mph 1017.7mb - 62f
7:40am 2 4 mph 1017.7mb - 62f
7:30am 2 4 mph 1017.6mb - 61f
7:20am 2 4 mph 1017.5mb - 61f
7:10am 2 4 mph 1017.4mb - 60f
7:00am 4
mph
1017.3mb 73f 60f
6:50am 4 7 mph 1017.2mb - 60f
6:40am 4 7 mph 1017.2mb - 61f
6:30am 4 7 mph 1017.1mb - 61f
6:20am 4
mph
1017.1mb - 61f
6:10am 4 7 mph 1016.9mb - 61f
6:00am 4
mph
1016.8mb 73f 61f
5:50am 4 7 mph 1016.8mb - 61f
5:40am 4 7 mph 1016.8mb - 61f
5:30am 4 7 mph 1016.8mb - 61f
5:20am 4 7 mph 1016.8mb - 61f
5:10am 4
mph
1016.8mb - 61f
5:00am 4 7 mph 1016.8mb 73f 61f
4:50am 4 7 mph 1016.7mb - 61f
4:40am 2 4 mph 1016.7mb - 62f
4:30am 4
mph
1016.5mb - 62f
4:20am 4 7 mph 1016.6mb - 62f
4:10am 4
mph
1016.7mb - 62f
4:00am 4
mph
1016.6mb 74f 63f
3:50am 4 7 mph 1016.6mb - 63f
3:40am 7
mph
1016.5mb - 63f
3:30am 4 7 mph 1016.6mb - 63f
3:20am 4 7 mph 1016.7mb - 63f
3:10am 4 7 mph 1016.7mb - 63f
3:00am 4 7 mph 1016.8mb 74f 63f
2:50am 4 7 mph 1016.9mb - 63f
2:40am 4 7 mph 1017mb - 63f
2:30am 4 7 mph 1017mb - 64f
2:20am 4
mph
1017.1mb - 64f
2:10am 4
mph
1017.1mb - 64f
2:00am 4 7 mph 1017.1mb 74f 64f
1:50am 4
mph
1017.1mb - 64f
1:40am 4
mph
1017mb - 64f
1:30am 4
mph
1016.9mb - 65f
1:20am 4 7 mph 1016.9mb - 65f
1:10am 4 7 mph 1017mb - 65f
1:00am 4 7 mph 1016.9mb 74f 65f
12:50am 4
mph
1016.9mb - 65f
12:40am 4
mph
1016.9mb - 66f
12:30am 2 4 mph 1016.9mb - 66f
12:20am 4
mph
1017mb - 67f
12:10am 2 4 mph 1017mb - 67f
12:00am 2 4 mph 1016.9mb 74f 67f
Tue 09/16 11:50pm 4 7 mph 1016.8mb - 67f
11:40pm 4 7 mph 1016.9mb - 68f
11:30pm 4 7 mph 1016.8mb - 68f
11:20pm 2 4 mph 1016.9mb - 67f
11:10pm 2 4 mph 1016.8mb - 68f
11:00pm 2 4 mph 1016.8mb 74f 68f
10:50pm 2 4 mph 1016.8mb - 68f
10:40pm 4 7 mph 1016.7mb - 68f
10:30pm 4 7 mph 1016.8mb - 69f
10:20pm 2 4 mph 1016.7mb - 69f
10:10pm 4 7 mph 1016.5mb - 69f
10:00pm 4 7 mph 1016.4mb 74f 69f
9:50pm 4 7 mph 1016.4mb - 69f
9:40pm 4 7 mph 1016.4mb - 69f
9:30pm 4 9 mph 1016.3mb - 70f
9:20pm 7 9 mph 1016.3mb - 70f
9:10pm 7
mph
1016.3mb - 70f
9:00pm 7 9 mph 1016.1mb 74f 71f
8:50pm 7 11 mph 1016.1mb - 71f
8:40pm 7 9 mph 1016.1mb - 72f
8:30pm 7 9 mph 1016mb - 72f
8:20pm 7 9 mph 1015.9mb - 72f
8:10pm 7 11 mph 1015.8mb - 72f
8:00pm 9 16 mph 1015.6mb 74f 73f
7:50pm 9 13 mph 1015.5mb - 73f
7:40pm 11 13 mph 1015.4mb - 73f
7:30pm 9 11 mph 1015.3mb - 74f
7:20pm 9 13 mph 1015.2mb - 74f
7:10pm 9 13 mph 1015.2mb - 74f
7:00pm 9 13 mph 1015.2mb 74f 74f
6:50pm 9 13 mph 1015.2mb - 74f
6:40pm 11 16 mph 1015.2mb - 75f
6:30pm 11 16 mph 1015.2mb - 75f
6:20pm 11 16 mph 1015.3mb - 75f
6:10pm 11 16 mph 1015.2mb - 75f
6:00pm 9 13 mph 1015.2mb 74f 75f
5:50pm 11 13 mph 1015.1mb - 75f
5:40pm 9 16 mph 1015.1mb - 75f
5:30pm 9 13 mph 1015.1mb - 75f
5:20pm 11 13 mph 1015.1mb - 76f
5:10pm 11 16 mph 1015.1mb - 75f
5:00pm 7 11 mph 1015mb 74f 75f
4:50pm 11 13 mph 1015mb - 75f
4:40pm 9 13 mph 1015mb - 75f
4:30pm 11 16 mph 1015mb - 75f
4:20pm 9 13 mph 1015mb - 75f
4:10pm 9 13 mph 1015mb - 75f
4:00pm 9 13 mph 1015.1mb 75f 75f
3:50pm 7 13 mph 1015.1mb - 75f
3:40pm 7 11 mph 1015.1mb - 75f
3:30pm 7 13 mph 1015.1mb - 75f
3:20pm 9 16 mph 1015.1mb - 75f
3:10pm 11 18 mph 1015.2mb - 75f
3:00pm 11 20 mph 1015.2mb 75f 75f
2:50pm 11 16 mph 1015.3mb - 74f
2:40pm 9 13 mph 1015.5mb - 74f
2:30pm 9 16 mph 1015.5mb - 74f
2:20pm 7 13 mph 1015.6mb - 74f
2:10pm 7 13 mph 1015.6mb - 74f
2:00pm 9 16 mph 1015.6mb 75f 74f
1:50pm 9 16 mph 1015.7mb - 74f
1:40pm 9 18 mph 1015.8mb - 73f
1:30pm 9 20 mph 1015.9mb - 73f
1:20pm 9 13 mph 1015.9mb - 73f
1:10pm 9 16 mph 1016mb - 72f
1:00pm 13 20 mph 1016.1mb 74f 73f
12:50pm 11 18 mph 1016mb - 72f
12:40pm 9 20 mph 1016.3mb - 72f
12:30pm 11 18 mph 1016.3mb - 72f
12:20pm 13 18 mph 1016.2mb - 72f
12:10pm 11 18 mph 1016.3mb - 72f
12:00pm 11 20 mph 1016.4mb 74f 72f
11:50am 13 22 mph 1016.5mb - 72f
11:40am 11 18 mph 1016.5mb - 72f
11:30am 11 18 mph 1016.5mb - 72f
11:20am 13 18 mph 1016.5mb - 72f
11:10am 13 20 mph 1016.4mb - 72f
11:00am 11 16 mph 1016.6mb 74f 72f
10:50am 13 22 mph 1016.7mb - 72f
10:40am 13 18 mph 1016.6mb - 72f
10:30am 11 18 mph 1016.8mb - 72f
10:20am 11 20 mph 1016.6mb - 72f
10:10am 9 13 mph 1016.6mb - 72f
10:00am 11 18 mph 1016.6mb 74f 72f
9:50am 13 20 mph 1016.6mb - 72f
9:40am 9 16 mph 1016.5mb - 71f
9:30am 9 11 mph 1016.6mb - 71f
9:20am 9 13 mph 1016.6mb - 71f
9:10am 7 13 mph 1016.5mb - 71f
9:00am 7 9 mph 1016.3mb 74f 71f
8:50am 7 9 mph 1016.4mb - 70f
8:40am 4 9 mph 1016.4mb - 69f
8:30am  -  2 mph 1016.3mb - 68f
8:20am 2 4 mph 1016.3mb - 67f
8:10am 4
mph
1016.4mb - 67f
8:00am 2 4 mph 1016.4mb 74f 66f
7:50am 4
mph
1016.3mb - 66f
7:40am 2 4 mph 1016.3mb - 66f
7:30am 4
mph
1016.3mb - 66f
7:20am 4
mph
1016.3mb - 66f
7:10am 4 7 mph 1016.1mb - 66f
7:00am 4 7 mph 1015.9mb 74f 66f
6:50am 7
mph
1015.9mb - 67f
6:40am 2 4 mph 1015.8mb - 67f
6:30am 2 4 mph 1015.8mb - 67f
6:20am 2 4 mph 1015.8mb - 67f
6:10am 2 4 mph 1015.9mb - 67f
6:00am 2 4 mph 1015.9mb 74f 67f
5:50am 2 4 mph 1015.9mb - 67f
5:40am 4
mph
1015.9mb - 67f
5:30am 4 7 mph 1015.8mb - 67f
5:20am 4 7 mph 1015.7mb - 67f
5:10am 4 7 mph 1015.8mb - 67f
5:00am 2 4 mph 1015.8mb 74f 67f
4:50am 2 4 mph 1015.7mb - 67f
4:40am 2 4 mph 1015.7mb - 67f
4:30am 2 4 mph 1015.7mb - 67f
4:20am 2 4 mph 1015.7mb - 67f
4:10am 4 7 mph 1015.7mb - 67f
4:00am 7
mph
1015.6mb 74f 67f
3:50am 7 9 mph 1015.5mb - 67f
3:40am 9 11 mph 1015.5mb - 67f
3:30am 9 11 mph 1015.6mb - 67f
3:20am 7 11 mph 1015.7mb - 67f
3:10am 7 11 mph 1015.8mb - 67f
3:00am 11 13 mph 1015.8mb 74f 67f
2:50am 11 13 mph 1015.9mb - 67f
2:40am 11 13 mph 1016mb - 67f
2:30am 9 13 mph 1016.3mb - 67f
2:20am 9 11 mph 1016.3mb - 67f
2:10am 9
mph
1016.4mb - 67f
1:10am 4 7 mph 1016.7mb - 67f
1:00am 7
mph
1016.6mb 74f 67f
12:50am 7 9 mph 1016.6mb - 67f
12:40am 7 9 mph 1016.6mb - 67f
12:30am 7 9 mph 1016.6mb - 67f
12:20am 7 9 mph 1016.7mb - 67f
12:10am 7 9 mph 1017mb - 67f
12:00am 7 9 mph 1017.1mb 74f 67f
Mon 09/15 11:50pm 7
mph
1017.3mb - 67f
11:40pm 7 9 mph 1017.5mb - 67f
11:30pm 7 9 mph 1017.6mb - 67f
11:20pm 7 9 mph 1017.8mb - 67f
11:10pm 7 9 mph 1017.8mb - 67f
11:00pm 7 9 mph 1018mb 74f 67f
10:50pm 7 9 mph 1018.2mb - 67f
10:40pm 9 11 mph 1018.1mb - 67f
10:30pm 9 13 mph 1018mb - 68f
10:20pm 9 11 mph 1018.4mb - 68f
10:10pm 9 11 mph 1018.6mb - 68f
10:00pm 9 11 mph 1018.6mb 74f 68f
9:50pm 9 11 mph 1018.6mb - 67f
9:40pm 9 11 mph 1018.7mb - 67f
9:30pm 11 13 mph 1018.8mb - 67f
9:20pm 9 16 mph 1018.9mb - 67f
9:10pm 11 18 mph 1018.7mb - 67f
9:00pm 13 18 mph 1018.8mb 74f 68f
8:50pm 13 16 mph 1019.1mb - 68f
8:40pm 11 13 mph 1019.4mb - 68f
8:30pm 11 13 mph 1019.3mb - 68f
8:20pm 11 13 mph 1019.3mb - 68f
8:10pm 11 13 mph 1019.1mb - 68f
8:00pm 11 13 mph 1019.1mb 75f 69f
7:50pm 11 13 mph 1019.1mb - 69f
7:40pm 11 16 mph 1019mb - 69f
7:30pm 11 13 mph 1019mb - 70f
7:20pm 9 16 mph 1018.9mb - 71f
7:10pm 7
mph
1019mb - 72f
7:00pm 4
mph
1019.1mb 75f 73f
6:50pm 4 7 mph 1019.2mb - 73f
6:40pm 4
mph
1019.3mb - 73f
6:30pm 4 7 mph 1019.3mb - 74f
6:20pm 4 7 mph 1019.5mb - 74f
6:10pm 7 9 mph 1019.6mb - 74f
6:00pm 7 9 mph 1019.7mb 75f 74f
5:50pm 4 9 mph 1019.6mb - 74f
5:40pm 7 11 mph 1019.8mb - 74f
5:30pm 7 9 mph 1019.8mb - 74f
5:20pm 7 9 mph 1019.8mb - 73f
5:10pm 7 11 mph 1019.8mb - 73f
5:00pm 9 11 mph 1019.8mb 75f 73f
4:50pm 9 11 mph 1019.9mb - 73f
4:40pm 9 13 mph 1020mb - 73f
4:30pm 9 11 mph 1020.1mb - 73f
4:20pm 9 13 mph 1020.1mb - 73f
4:10pm 9 11 mph 1020.2mb - 73f
4:00pm 9 11 mph 1020.3mb 75f 73f
3:50pm 7 11 mph 1020.3mb - 73f
3:40pm 7 11 mph 1020.3mb - 73f
3:30pm 7 9 mph 1020.5mb - 73f
3:20pm 7 11 mph 1020.6mb - 72f
3:10pm 7 9 mph 1020.6mb - 72f
3:00pm 4 7 mph 1020.8mb 76f 72f
2:50pm 7 9 mph 1020.8mb - 72f
2:40pm 7 9 mph 1020.9mb - 72f
2:30pm 4 9 mph 1021.2mb - 72f
2:20pm 4 7 mph 1021.3mb - 72f
2:10pm 4 7 mph 1021.5mb - 71f
2:00pm 4 7 mph 1021.6mb 75f 71f
1:50pm 4 7 mph 1021.8mb - 71f
1:40pm 4 7 mph 1022mb - 71f
1:30pm 4
mph
1022mb - 71f
1:20pm 2 4 mph 1022.1mb - 70f
1:10pm 4
mph
1022.2mb - 70f
1:00pm 2 4 mph 1022.3mb 75f 70f
12:50pm 2 4 mph 1022.4mb - 70f
12:40pm 4
mph
1022.5mb - 69f
12:30pm 4
mph
1022.7mb - 69f
12:20pm 4
mph
1022.8mb - 69f
12:10pm 2 4 mph 1022.9mb - 68f
12:00pm 4
mph
1023.1mb 74f 68f
11:50am 4
mph
1023.2mb - 68f
11:40am 2 4 mph 1023.3mb - 67f
11:30am 2 4 mph 1023.4mb - 67f
11:20am 2 4 mph 1023.6mb - 67f
11:10am 2 4 mph 1023.7mb - 67f
11:00am 2 4 mph 1023.8mb 74f 66f
10:50am 2 4 mph 1023.9mb - 66f
10:40am 2 4 mph 1024mb - 66f
10:30am 2 7 mph 1024mb - 67f
10:20am 2 7 mph 1024mb - 67f
10:10am  -  4 mph 1024mb - 66f
10:00am  -  mph - 74f -
9:10am 2 4 mph 1024.1mb - 63f
9:00am 2 4 mph 1024.1mb 74f 63f
8:50am 2 4 mph 1024mb - 62f
8:40am 2 4 mph 1024.1mb - 62f
8:30am 4
mph
1023.9mb - 62f
8:20am 2 7 mph 1024mb - 61f
8:10am 4 7 mph 1024.1mb - 61f
8:00am 4 7 mph 1024.1mb 74f 61f